Scroll down
FLIGHT INFORMATION
Federal Express (FedEx)

FDX10

At Arrival Gate

KMEM
 LFPG
DATE: 2021-02-14
GATE:  -
GATE DEPARTURE: 10:58
TAKEOFF: 11:16
DATE: 2021-02-14
GATE: 70
LANDING: 19:08
GATE ARRIVAL: 19:20
FLIGHT DATA
Crew: 
Speed: 
490 kts
Altitude: 
37,001 ft
Stage Length: 
3,951.3 nm
Block Time: 
8.3 hrs
Flight Time: 
7.9 hrs
Fuel Used: 
129,309 lb
Cleared Route: KMEM SLONN BASAC GENEH NUYID SIDAE ROD YXU YXI YMW YLQ VBS ANCER NEEKO 5450N 5540N 5530N 5520N DOGAL BEXET SLANY STU NUMPO OKESI HOFIK BEDEK NIGIT VAPID MID SFD WAFFU HARDY XIDIL PETAX BIBAX BIBA1 BIBA2 BIBA3 BIBA4 BIBA5 KOLIV MOPAR RW09L
TRACK DATA
50,000 ft 1,000 kts
AIRCRAFT INFO AND CUMULATIVE STATS
Aircraft Type: 
B77LF
Registration: 
SELCAL: 
MSN/LN: 
40682 / 1608
Total Flights: 
4
Total Block Time: 
27.7 hrs
Total Flight Time: 
26.6 hrs
Total Fuel Used: 
453,976 lb
DATALINK LOG | Newest first | Current as of: 2022-09-25 18:19:17
LABEL SEQUENCE CONTENT Dn/Up
QD224819:20 20.9▼ Dn
QC104119:08▼ Dn
GA4626YOUR ASSIGNMENT IS STILL 70▲ Up
GR4616LFPG 19:06 MAAS 00 YP/UM 0/0 WCHR/S/C 0/0/0 HI-VAL YES▼ Dn
2U4145EBBR 141750Z 18007KT CAVOK 03/M09 Q1030 R07R/190095 R01/190095 R07L/190095 NOSIG▲ Up
2U4145LFPO 141800Z 14007KT CAVOK 01/M05 Q1029 NOSIG▲ Up
2U4145LFPG 141800Z 14011KT CAVOK 01/M06 Q1029 NOSIG▲ Up
2S4212LFPG LFPO EBBR▼ Dn
2U0120EIDW 141730Z 20010KT 170V240 9999 SCT020 SCT200 11/06 Q1005 NOSIG▲ Up
2U0120EBBR 141720Z 17009KT CAVOK 03/M10 Q1030 R07R/190095 R01/190095 R07L/190095 NOSIG▲ Up
2U0120LFPO 141730Z 13005KT 100V170 CAVOK 01/M05 Q1030 NOSIG▲ Up
2U0120EGLL 141720Z AUTO 15011KT 9999 -RA SCT019/// BKN039/// //////TCU 03/M01 Q1022 TEMPO RA▲ Up
2U0120LFPG 141730Z 14010KT CAVOK 01/M06 Q1029 NOSIG▲ Up
2S0236LFPG EGLL LFPO EBBR EIDW▼ Dn
2U1101EINN 141430Z 20015KT 9999 FEW016 BKN030 12/07 Q1001 NOSIG▲ Up
2U1101BIKF 141430Z 13024G35KT 9999 VCSH BKN013CB BKN050 07/05 Q0978▲ Up
2U1101CYYR 141400Z 25007KT 15SM FEW270 M19/M25 A3019 RMK CI1 SLP230▲ Up
2U1101LFPG 141430Z 14012KT CAVOK 02/M08 Q1031 NOSIG▲ Up
2S1257LFPG CYYR BIKF EINN▼ Dn
2U5323EINN 141230Z 21021G34KT 9999 FEW018 SCT022 BKN030 13/07 Q0999 NOSIG▲ Up
2U5323BIKF 141231Z 12025KT 9999 VCSH BKN014 BKN030 07/05 Q0978▲ Up
2U5323CYYR 141200Z 15003KT 15SM SKC M25/M29 A3022 RMK SLP239▲ Up
2U5323CYUL 141200Z 04006KT 10SM -SN BKN034 OVC055 M12/M14 A3023 RMK SC7SC1 SLP241▲ Up
2U5323LFPG 141230Z 12012KT CAVOK 01/M08 Q1032 NOSIG▲ Up
2S5448LFPG CYUL CYYR BIKF EINN▼ Dn
5Z434514 FEB 21 11:41:48z / FLT DECK GOOD / ACF POS GOOD / GRND SERVICES GOOD / MAINT GOOD▼ Dn
GA4256CARGO STAND 70▲ Up
GR4246LFPG 19:13 MAAS 00 YP/UM 0/0 WCHR/S/C 0/0/0 HI-VAL YES▼ Dn
5Z424514 FEB 21 11:40:41z / FLT DECK GOOD / ACF POS GOOD / GRND SERVICES GOOD / MAINT TROLLING▼ Dn
5R4144SIDAE 11:39z FL329 ROD 12:05z YXU M0.83 136.1 -51 224/92 RW09L 19:13z▼ Dn
QB182211:16▼ Dn
QA000410:58 150.5▼ Dn
2U3813KMEM 140954Z 02009KT 8SM -SN OVC011 M08/M11 A3025 RMK AO2 SNB09 SLP247 P0000 T10831106 $▲ Up
2S3941KMEM▼ Dn
A33748CLEARED TO LFPG VIA GENEH7 NUYID DCT SIDAE DCT ROD DCT YXU DCT YXI DCT YMW DCT YLQ DCT VBS DCT ANCER N565A NEEKO/M080F370 DCT 54N050W/M080F370 55N040W 55N030W 55N020W/M080F370 DCT DOGAL/N0459F370 DCT BEXET DCT SLANY UL9 STU P2 NIGIT L18 MID/N0458F260 Y803 SFD UM605 PETAX/N0438F240 UM605 BIBAX BIBA9D. SQUAWK 4661.▲ Up
Q03638[LINK ACK]▲ Up
Q03637[LINK TEST]▼ Dn


AIRCRAFT HISTORY
FLIGHT DATE FLIGHT NO. ORIGIN DESTINATION CLEARED ROUTE BLOCK TIME FLIGHT TIME FUEL USED PILOT
2021-03-27FDX212PANC ZSPD PANC TED FFITZ WINOR MCG UNK WONAB OME VALDA ABINA BC GIRLO BUMUL GETKA LUNAD LAMKU USAMA BETAM ARNAP ASBAT MONOG DERUD GOPNA RUKAR BISMA BANOT RELDI DIREB SOPIN NILOT GITAK GIRUD LUSAK KUNON LUPAT OBUTA IBOLI OLGIR SUKOP LAPNI BESPA OGNIT PENOK ODEKA MAGIT JMU IGADO HRB PABKI ISBOP NULRA LJB LEMOT NUBKI BIDIB ISKEM TOSID NODAL CHI SANKO OBDIS DONVO IKEKA OMLIB DOPNO IVPIP IKADI SURAK AKARA DUMET IPRAG PUD ZSPD9.3 hrs9.1 hrs156,802 lbMichael Roth
2021-03-13FDX313EDDK PANC EDDK DK130 DK141 DK143 DK144 DK145 WYP MISGO SONEB TENLI FLEVO SPY BERGI LEGBA ODASI LONAM VENAS GOLVO PELET ASKAM BADGA CUTEL ODMIX FORTY SUM SOSAR 6910N BERSO 7522N 7625N 7729N 7834N 7940N 8049N APSIN 8186N 80N03 79N12 78N18 77N23 76N27 75N30 74N33 73N35 ADREW FYU BIJOU BURMA CHATA FAI ENN TAGER PANC9.2 hrs8.9 hrs152,639 lbEphedrin
2021-02-14FDX502DLFPG EDDK LFPG PG091 PG092 PG094 NEPAR RANUX MEDOX VALEK LUTAX DIK ARCKY IBESA LEDMU ERUKI DEPOK DK455 LEGDU RW14L1 hrs0.7 hrs15,226 lbEmanuel Hagen
2021-02-14FDX10KMEM LFPG KMEM SLONN BASAC GENEH NUYID SIDAE ROD YXU YXI YMW YLQ VBS ANCER NEEKO 5450N 5540N 5530N 5520N DOGAL BEXET SLANY STU NUMPO OKESI HOFIK BEDEK NIGIT VAPID MID SFD WAFFU HARDY XIDIL PETAX BIBAX BIBA1 BIBA2 BIBA3 BIBA4 BIBA5 KOLIV MOPAR RW09L8.3 hrs7.9 hrs129,309 lbEmanuel Hagen